Time;durP1;ratioP1;P1;durP2;ratioP2;P2;SDS_P1;SDS_P2;PMS_P1;PMS_P2;Temp;Humidity;BMP_temperature;BMP_pressure;BME280_temperature;BME280_humidity;BME280_pressure;Samples;Min_cycle;Max_cycle;Signal;HPM_P1;HPM_P2
2024/04/05 04:01:03;;;;;;;2.38;2.15;;;9.70;99.90;;;;;;5708215;22;20237;-77
2024/04/05 04:03:29;;;;;;;2.53;1.63;;;9.70;99.90;;;;;;4953840;29;20210;-74
2024/04/05 04:05:57;;;;;;;13.50;3.67;;;9.70;99.90;;;;;;4953979;29;20208;-75
2024/04/05 04:08:23;;;;;;;7.00;2.00;;;9.70;99.90;;;;;;4961166;28;20299;-75
2024/04/05 04:10:49;;;;;;;2.67;2.43;;;9.70;99.90;;;;;;4952836;28;20312;-74
2024/04/05 04:13:19;;;;;;;6.38;2.50;;;9.70;99.90;;;;;;4955376;29;20291;-74
2024/04/05 04:15:46;;;;;;;6.57;2.00;;;9.70;99.90;;;;;;4954772;28;20205;-73
2024/04/05 04:18:13;;;;;;;1.85;1.25;;;9.70;99.90;;;;;;4946818;28;20221;-74
2024/04/05 04:20:40;;;;;;;2.85;1.73;;;9.70;99.90;;;;;;4957777;28;20602;-74
2024/04/05 04:23:06;;;;;;;5.78;2.63;;;9.70;99.90;;;;;;4951020;28;20584;-74
2024/04/05 04:25:32;;;;;;;2.00;1.90;;;9.70;99.90;;;;;;4945753;28;20209;-73
2024/04/05 04:27:58;;;;;;;3.50;2.45;;;9.70;99.90;;;;;;4952025;29;20220;-73
2024/04/05 04:30:25;;;;;;;3.03;1.53;;;9.70;99.90;;;;;;4952115;28;20209;-73
2024/04/05 04:32:51;;;;;;;10.98;2.40;;;9.70;99.90;;;;;;4952525;28;20631;-75
2024/04/05 04:35:19;;;;;;;4.13;1.50;;;9.60;99.90;;;;;;4959278;28;20214;-72
2024/04/05 04:37:45;;;;;;;6.85;2.05;;;9.50;99.90;;;;;;4951918;28;20211;-73
2024/04/05 04:40:11;;;;;;;4.40;1.70;;;9.50;99.90;;;;;;4961008;28;20207;-73
2024/04/05 04:42:38;;;;;;;2.20;1.50;;;9.50;99.90;;;;;;4948262;28;20237;-75
2024/04/05 04:45:05;;;;;;;1.85;1.73;;;9.50;99.90;;;;;;4948313;28;20202;-73
2024/04/05 04:47:31;;;;;;;3.45;2.30;;;9.40;99.90;;;;;;4954128;28;20205;-73
2024/04/05 04:49:58;;;;;;;1.80;1.47;;;9.40;99.90;;;;;;4959571;28;20663;-74
2024/04/05 04:52:25;;;;;;;11.48;2.42;;;9.40;99.90;;;;;;4949450;28;20642;-74
2024/04/05 04:54:53;;;;;;;10.95;2.35;;;9.40;99.90;;;;;;4949562;28;20209;-73
2024/04/05 04:57:19;;;;;;;3.60;2.30;;;9.40;99.90;;;;;;4957680;28;20334;-73
2024/04/05 04:59:45;;;;;;;5.17;2.43;;;9.40;99.90;;;;;;4950225;28;20229;-74
2024/04/05 05:02:11;;;;;;;5.43;3.30;;;9.60;99.90;;;;;;4954803;28;20237;-75
2024/04/05 05:04:38;;;;;;;6.00;3.10;;;9.50;99.90;;;;;;4952456;28;20231;-74
2024/04/05 05:07:06;;;;;;;3.80;1.50;;;9.60;99.90;;;;;;4954238;28;20461;-75
2024/04/05 05:09:34;;;;;;;6.47;2.95;;;9.60;99.90;;;;;;4954879;28;20209;-76
2024/04/05 05:12:00;;;;;;;11.15;2.00;;;9.50;99.90;;;;;;4954288;28;20225;-75
2024/04/05 05:14:27;;;;;;;2.20;2.00;;;9.50;99.90;;;;;;4952880;28;20213;-74
2024/04/05 05:16:53;;;;;;;8.38;2.45;;;9.60;99.90;;;;;;4954342;28;20210;-74
2024/04/05 05:19:20;;;;;;;5.30;1.70;;;9.60;99.90;;;;;;4954679;28;20202;-74
2024/04/05 05:21:46;;;;;;;4.78;1.60;;;9.70;99.90;;;;;;4953737;28;20494;-75
2024/04/05 05:24:13;;;;;;;9.23;3.07;;;9.70;99.90;;;;;;4949935;28;20680;-74
2024/04/05 05:26:40;;;;;;;7.93;2.50;;;9.70;99.90;;;;;;4954013;28;20217;-74
2024/04/05 05:29:07;;;;;;;8.38;3.13;;;9.80;99.90;;;;;;4954182;28;20212;-74
2024/04/05 05:31:33;;;;;;;5.25;2.40;;;9.80;99.90;;;;;;4954594;28;20261;-75
2024/04/05 05:34:00;;;;;;;7.47;2.70;;;9.80;99.90;;;;;;4952237;28;20269;-75
2024/04/05 05:36:26;;;;;;;6.00;2.75;;;9.80;99.90;;;;;;4954010;28;20461;-74
2024/04/05 05:38:52;;;;;;;12.37;2.20;;;9.80;99.90;;;;;;4951563;28;20216;-74
2024/04/05 05:41:18;;;;;;;3.03;2.17;;;9.80;99.90;;;;;;4952969;28;20316;-74
2024/04/05 05:43:46;;;;;;;6.93;2.10;;;9.80;99.90;;;;;;4953336;28;20289;-74
2024/04/05 05:46:12;;;;;;;5.50;2.30;;;9.90;99.90;;;;;;4950657;28;20213;-74
2024/04/05 05:48:38;;;;;;;4.63;1.53;;;9.90;99.90;;;;;;4953268;28;20219;-74
2024/04/05 05:51:04;;;;;;;6.35;1.90;;;10.00;99.90;;;;;;4952911;28;20232;-73
2024/04/05 05:53:31;;;;;;;2.90;2.63;;;10.10;99.90;;;;;;4956231;28;20217;-73
2024/04/05 05:55:57;;;;;;;5.28;2.88;;;10.10;99.90;;;;;;4948483;28;20465;-74
2024/04/05 05:58:24;;;;;;;6.87;2.30;;;10.10;99.90;;;;;;4954943;28;20209;-71
2024/04/05 06:00:51;;;;;;;5.70;2.92;;;10.20;99.90;;;;;;4954317;28;20237;-72
2024/04/05 06:03:17;;;;;;;6.68;2.95;;;10.20;99.90;;;;;;4955602;28;20217;-73
2024/04/05 06:05:49;;;;;;;2.45;2.05;;;10.20;99.90;;;;;;4961232;28;20233;-74
2024/04/05 06:08:16;;;;;;;6.90;2.22;;;10.20;99.90;;;;;;4960208;28;20205;-74
2024/04/05 06:10:42;;;;;;;5.35;1.67;;;10.30;99.90;;;;;;4964273;28;20255;-73
2024/04/05 06:13:08;;;;;;;3.87;2.57;;;10.30;99.90;;;;;;4954785;28;20233;-74
2024/04/05 06:15:34;;;;;;;9.10;2.30;;;10.30;99.90;;;;;;4956645;28;20561;-72
2024/04/05 06:18:03;;;;;;;4.88;2.17;;;10.30;99.90;;;;;;4944859;28;20578;-73
2024/04/05 06:20:28;;;;;;;4.70;1.70;;;10.30;99.90;;;;;;4949903;28;20256;-73
2024/04/05 06:22:55;;;;;;;9.83;1.67;;;10.40;99.90;;;;;;4951031;28;20197;-73
2024/04/05 06:25:23;;;;;;;3.78;1.50;;;10.40;99.90;;;;;;4952210;28;20664;-73
2024/04/05 06:27:50;;;;;;;5.47;2.03;;;10.40;99.90;;;;;;4954698;28;20619;-72
2024/04/05 06:30:16;;;;;;;8.65;1.70;;;10.50;99.90;;;;;;4948434;28;20217;-72
2024/04/05 06:32:42;;;;;;;2.20;1.30;;;10.50;99.90;;;;;;4949257;28;20233;-73
2024/04/05 06:35:10;;;;;;;4.22;1.67;;;10.60;99.90;;;;;;4944196;28;20528;-73
2024/04/05 06:37:37;;;;;;;2.08;1.50;;;10.60;99.90;;;;;;4949029;28;20709;-72
2024/04/05 06:40:03;;;;;;;1.90;1.75;;;10.60;99.90;;;;;;4950850;28;20210;-73
2024/04/05 06:42:30;;;;;;;6.03;1.90;;;10.70;99.90;;;;;;4950139;28;20220;-73
2024/04/05 06:44:56;;;;;;;1.30;1.20;;;10.70;99.90;;;;;;4949028;28;20469;-74
2024/04/05 06:47:24;;;;;;;5.90;2.20;;;10.80;99.90;;;;;;4952603;28;20480;-75
2024/04/05 06:49:50;;;;;;;13.38;2.78;;;10.80;99.90;;;;;;4949934;28;20233;-73
2024/04/05 06:52:18;;;;;;;7.50;2.37;;;10.90;99.90;;;;;;4955766;28;20247;-73
2024/04/05 06:54:44;;;;;;;2.13;1.70;;;11.00;99.90;;;;;;4946141;28;20237;-73
2024/04/05 06:57:11;;;;;;;1.47;1.37;;;11.00;99.90;;;;;;4950670;28;20469;-75
2024/04/05 06:59:37;;;;;;;8.73;2.47;;;11.20;99.90;;;;;;4947898;28;20469;-75
2024/04/05 07:02:04;;;;;;;3.30;1.93;;;11.30;99.90;;;;;;4949012;28;21086;-76
2024/04/05 07:04:30;;;;;;;4.07;1.63;;;11.50;99.90;;;;;;4944391;28;20470;-74
2024/04/05 07:06:57;;;;;;;7.73;2.20;;;11.60;99.90;;;;;;4950415;28;20821;-74
2024/04/05 07:09:25;;;;;;;4.53;1.87;;;11.80;99.90;;;;;;4950186;28;20469;-74
2024/04/05 07:11:52;;;;;;;6.73;2.60;;;11.90;99.90;;;;;;4950267;28;21007;-73
2024/04/05 07:14:18;;;;;;;2.70;1.90;;;12.10;99.90;;;;;;4950055;28;20499;-75
2024/04/05 07:16:46;;;;;;;1.83;1.30;;;12.20;99.90;;;;;;4949989;28;20471;-75
2024/04/05 07:19:12;;;;;;;6.17;2.50;;;12.40;99.90;;;;;;4949557;28;20859;-73
2024/04/05 07:21:39;;;;;;;1.80;1.73;;;12.50;99.90;;;;;;4947819;28;20495;-75
2024/04/05 07:24:06;;;;;;;4.60;1.63;;;12.70;99.90;;;;;;4951437;28;20987;-74
2024/04/05 07:26:34;;;;;;;6.10;2.33;;;12.70;99.90;;;;;;4950256;28;20468;-73
2024/04/05 07:29:01;;;;;;;4.77;2.10;;;12.70;99.90;;;;;;4952669;28;20478;-73
2024/04/05 07:31:28;;;;;;;5.10;1.60;;;12.60;99.90;;;;;;4943930;28;20531;-75
2024/04/05 07:33:54;;;;;;;1.50;1.33;;;12.60;99.90;;;;;;4949635;28;20527;-73
2024/04/05 07:36:21;;;;;;;4.30;1.90;;;12.60;99.90;;;;;;4943013;28;20497;-73
2024/04/05 07:38:49;;;;;;;7.43;1.43;;;12.60;99.90;;;;;;4951781;28;20204;-74
2024/04/05 07:41:17;;;;;;;4.50;1.93;;;12.60;99.90;;;;;;4948777;28;20481;-74
2024/04/05 07:43:44;;;;;;;2.50;1.60;;;12.60;99.90;;;;;;4950142;28;20963;-75
2024/04/05 07:46:11;;;;;;;2.07;1.90;;;12.70;99.90;;;;;;4951264;28;20923;-74
2024/04/05 07:48:37;;;;;;;3.57;1.10;;;12.80;99.90;;;;;;4950105;28;20476;-75
2024/04/05 07:51:04;;;;;;;3.93;2.10;;;12.90;99.90;;;;;;4947366;28;20499;-76
2024/04/05 07:53:30;;;;;;;5.50;1.80;;;13.00;99.90;;;;;;4949650;28;20225;-75
2024/04/05 07:55:57;;;;;;;4.37;1.73;;;13.20;99.90;;;;;;4946338;28;21065;-74
2024/04/05 07:58:22;;;;;;;5.00;1.87;;;13.30;99.90;;;;;;4949450;28;20503;-74
2024/04/05 08:00:51;;;;;;;7.17;1.83;;;13.40;99.90;;;;;;4948131;28;21006;-76
2024/04/05 08:03:17;;;;;;;3.10;1.60;;;13.40;99.90;;;;;;4951358;28;20221;-75
2024/04/05 08:05:43;;;;;;;4.47;1.97;;;13.40;99.90;;;;;;4948214;28;20477;-75
2024/04/05 08:08:09;;;;;;;10.23;1.70;;;13.40;99.90;;;;;;4951374;28;20468;-75
2024/04/05 08:10:36;;;;;;;2.17;1.97;;;13.30;99.90;;;;;;4947856;28;20987;-73
2024/04/05 08:13:02;;;;;;;3.27;2.10;;;13.20;99.90;;;;;;4952252;28;20236;-75
2024/04/05 08:15:31;;;;;;;2.00;1.53;;;13.20;99.90;;;;;;4949218;28;20468;-75
2024/04/05 08:17:58;;;;;;;2.07;1.30;;;13.20;99.90;;;;;;4951069;28;20812;-75
2024/04/05 08:20:25;;;;;;;3.33;1.10;;;13.20;99.90;;;;;;4954616;28;20476;-76
2024/04/05 08:22:51;;;;;;;4.33;1.87;;;13.10;99.90;;;;;;4954536;28;20475;-74
2024/04/05 08:25:18;;;;;;;2.30;1.67;;;13.10;99.90;;;;;;4955564;28;20465;-74
2024/04/05 08:27:44;;;;;;;4.37;1.97;;;13.00;99.90;;;;;;4949226;28;20217;-72
2024/04/05 08:30:12;;;;;;;6.97;1.77;;;12.90;99.90;;;;;;4955251;28;20951;-75
2024/04/05 08:32:40;;;;;;;2.80;1.80;;;12.90;99.90;;;;;;4952598;28;20476;-75
2024/04/05 08:35:09;;;;;;;2.93;1.37;;;12.80;99.90;;;;;;4954326;28;20473;-73
2024/04/05 08:37:35;;;;;;;2.97;1.27;;;12.80;99.90;;;;;;4954077;28;20472;-73
2024/04/05 08:40:01;;;;;;;5.77;1.60;;;12.70;99.90;;;;;;4946594;28;20555;-74
2024/04/05 08:42:32;;;;;;;3.30;1.47;;;12.70;99.90;;;;;;4950014;28;20494;-73
2024/04/05 08:44:59;;;;;;;2.00;1.03;;;12.70;99.90;;;;;;4950345;28;20579;-74
2024/04/05 08:47:25;;;;;;;3.33;1.43;;;12.70;99.90;;;;;;4961426;28;20466;-73
2024/04/05 08:49:53;;;;;;;4.67;1.63;;;12.70;99.90;;;;;;4961406;28;20468;-73
2024/04/05 08:52:20;;;;;;;6.10;1.77;;;12.90;99.90;;;;;;4958241;28;20489;-75
2024/04/05 08:54:47;;;;;;;2.00;1.77;;;13.00;99.90;;;;;;4961682;28;20836;-74
2024/04/05 08:57:14;;;;;;;8.23;1.97;;;13.10;99.90;;;;;;4960474;28;20563;-74
2024/04/05 08:59:48;;;;;;;6.90;2.00;;;13.20;99.90;;;;;;4961410;28;20478;-74
2024/04/05 09:02:15;;;;;;;1.83;1.73;;;13.30;99.90;;;;;;4959767;28;20511;-73
2024/04/05 09:04:42;;;;;;;8.83;2.00;;;13.40;99.90;;;;;;4955156;28;20518;-74
2024/04/05 09:07:07;;;;;;;1.93;1.60;;;13.40;99.90;;;;;;4958190;28;20467;-74
2024/04/05 09:09:35;;;;;;;1.60;1.50;;;13.40;99.90;;;;;;4961271;28;20949;-74
2024/04/05 09:12:03;;;;;;;5.67;2.07;;;13.40;99.90;;;;;;4960251;28;20224;-75
2024/04/05 09:14:30;;;;;;;2.63;2.03;;;13.40;99.90;;;;;;4961729;28;20631;-74
2024/04/05 09:16:57;;;;;;;1.70;1.60;;;13.40;99.90;;;;;;4960411;28;20551;-74
2024/04/05 09:19:23;;;;;;;2.00;1.10;;;13.50;99.90;;;;;;4958527;28;20554;-74
2024/04/05 09:21:50;;;;;;;2.73;2.37;;;13.60;99.90;;;;;;4958443;28;20488;-75
2024/04/05 09:24:16;;;;;;;6.90;1.87;;;13.70;99.90;;;;;;4959367;28;20456;-74
2024/04/05 09:26:45;;;;;;;10.53;1.97;;;13.70;99.90;;;;;;4960018;28;20469;-75
2024/04/05 09:29:13;;;;;;;6.77;1.57;;;13.70;99.90;;;;;;4960800;28;20468;-74
2024/04/05 09:31:40;;;;;;;1.87;1.63;;;13.70;99.90;;;;;;4959177;28;20524;-74
2024/04/05 09:34:08;;;;;;;5.60;1.90;;;13.90;99.90;;;;;;4951841;28;20492;-74
2024/04/05 09:36:34;;;;;;;8.73;2.30;;;14.00;99.90;;;;;;4956414;28;20846;-75
2024/04/05 09:39:05;;;;;;;2.00;1.90;;;14.10;99.90;;;;;;4957679;28;20471;-75
2024/04/05 09:41:33;;;;;;;1.63;1.47;;;14.10;99.90;;;;;;4956239;28;20484;-75
2024/04/05 09:44:04;;;;;;;4.27;1.53;;;14.20;99.90;;;;;;4961530;28;20836;-76
2024/04/05 09:46:31;;;;;;;2.97;2.57;;;14.20;99.90;;;;;;4958584;28;21265;-75
2024/04/05 09:48:58;;;;;;;4.57;1.50;;;14.30;99.90;;;;;;4962439;28;20500;-76
2024/04/05 09:51:30;;;;;;;7.53;2.03;;;14.30;99.90;;;;;;4955619;28;20560;-75
2024/04/05 09:54:00;;;;;;;4.03;1.97;;;14.40;99.90;;;;;;4959705;28;21141;-75
2024/04/05 09:56:25;;;;;;;2.33;1.80;;;14.40;99.90;;;;;;4953757;28;20484;-74
2024/04/05 09:58:55;;;;;;;2.10;1.70;;;14.50;99.90;;;;;;4954488;28;20476;-73
2024/04/05 10:01:23;;;;;;;3.83;2.13;;;14.60;99.90;;;;;;4957481;28;20287;-74
2024/04/05 10:03:51;;;;;;;2.20;1.70;;;14.70;99.90;;;;;;4955386;28;20468;-73
2024/04/05 10:06:17;;;;;;;1.80;1.40;;;14.90;99.90;;;;;;4947970;28;20875;-75
2024/04/05 10:08:44;;;;;;;2.73;1.80;;;15.00;99.90;;;;;;4952360;28;20496;-74
2024/04/05 10:11:11;;;;;;;5.30;2.10;;;15.20;99.90;;;;;;4951786;28;20503;-75
2024/04/05 10:13:38;;;;;;;2.37;2.20;;;15.40;99.90;;;;;;4952530;28;21054;-75
2024/04/05 10:16:04;;;;;;;3.03;1.93;;;15.60;99.90;;;;;;4951326;28;20469;-75
2024/04/05 10:18:34;;;;;;;4.03;1.93;;;15.70;99.90;;;;;;4953312;28;20552;-74
2024/04/05 10:21:02;;;;;;;3.90;1.90;;;15.90;99.90;;;;;;4952977;28;20484;-74
2024/04/05 10:23:29;;;;;;;3.47;2.37;;;16.00;99.90;;;;;;4945770;28;20469;-75
2024/04/05 10:25:56;;;;;;;2.73;0.97;;;16.10;99.90;;;;;;4956443;28;20476;-74
2024/04/05 10:28:23;;;;;;;2.87;2.20;;;16.20;99.90;;;;;;4959004;28;20472;-74
2024/04/05 10:30:49;;;;;;;1.20;1.20;;;16.20;99.90;;;;;;4961221;28;20484;-75
2024/04/05 10:33:18;;;;;;;9.40;2.07;;;16.20;99.90;;;;;;4959640;28;20496;-74
2024/04/05 10:35:46;;;;;;;1.93;1.80;;;16.20;99.90;;;;;;4947129;28;20471;-76
2024/04/05 10:38:13;;;;;;;1.93;1.87;;;16.30;99.90;;;;;;4956826;28;20550;-75
2024/04/05 10:40:38;;;;;;;4.03;2.50;;;16.40;99.90;;;;;;4956011;28;21166;-74
2024/04/05 10:43:09;;;;;;;1.73;1.63;;;16.50;99.90;;;;;;4960799;28;20476;-75
2024/04/05 10:45:35;;;;;;;1.40;1.30;;;16.60;99.90;;;;;;4957395;28;21155;-74
2024/04/05 10:48:03;;;;;;;3.80;1.53;;;16.60;99.90;;;;;;4958813;28;20589;-75
2024/04/05 10:50:34;;;;;;;2.07;1.67;;;16.60;99.90;;;;;;4959020;28;20479;-75
2024/04/05 10:53:03;;;;;;;2.37;1.77;;;16.70;99.90;;;;;;4955756;28;20480;-74
2024/04/05 10:55:29;;;;;;;1.73;1.73;;;16.80;99.90;;;;;;4948127;28;20471;-74
2024/04/05 10:57:56;;;;;;;2.23;1.70;;;16.80;99.90;;;;;;4949951;29;20468;-73
2024/04/05 11:00:22;;;;;;;3.07;1.70;;;16.90;99.90;;;;;;4957557;28;20260;-73
2024/04/05 11:02:49;;;;;;;2.83;1.40;;;16.90;99.90;;;;;;4960371;28;20464;-73
2024/04/05 11:05:20;;;;;;;10.17;5.83;;;16.80;99.90;;;;;;4960625;28;20459;-73
2024/04/05 11:07:46;;;;;;;15.93;10.50;;;16.70;99.90;;;;;;4958042;28;20464;-74
2024/04/05 11:10:16;;;;;;;10.07;6.23;;;16.60;99.90;;;;;;4960100;28;20973;-74
2024/04/05 11:12:44;;;;;;;6.03;4.00;;;16.60;99.90;;;;;;4955907;28;20465;-73
2024/04/05 11:15:10;;;;;;;6.37;4.07;;;16.60;99.90;;;;;;4953751;28;20492;-74
2024/04/05 11:17:37;;;;;;;4.47;3.50;;;16.60;99.90;;;;;;4958521;28;20464;-74
2024/04/05 11:20:07;;;;;;;5.70;5.20;;;16.70;99.90;;;;;;4954617;28;20472;-74
2024/04/05 11:22:34;;;;;;;5.20;1.83;;;16.70;99.90;;;;;;4959277;28;20492;-74
2024/04/05 11:25:00;;;;;;;3.47;2.40;;;16.80;99.90;;;;;;4958629;28;20613;-74
2024/04/05 11:27:29;;;;;;;2.17;2.00;;;16.80;99.90;;;;;;4957687;28;20468;-73
2024/04/05 11:29:56;;;;;;;3.83;2.10;;;16.90;99.90;;;;;;4961408;28;20586;-74
2024/04/05 11:32:27;;;;;;;8.50;2.90;;;16.80;99.90;;;;;;4957496;28;20519;-73
2024/04/05 11:34:53;;;;;;;1.37;1.27;;;16.90;99.90;;;;;;4957077;28;20484;-74
2024/04/05 11:37:19;;;;;;;1.80;1.73;;;16.90;99.90;;;;;;4961033;28;20474;-73
2024/04/05 11:39:45;;;;;;;3.10;2.80;;;17.00;99.90;;;;;;4958235;28;20214;-73
2024/04/05 11:42:12;;;;;;;2.60;2.37;;;17.00;99.90;;;;;;4958172;28;21010;-74
2024/04/05 11:44:40;;;;;;;4.50;4.10;;;17.00;99.90;;;;;;4959270;28;20263;-74
2024/04/05 11:47:07;;;;;;;4.83;3.57;;;17.00;99.90;;;;;;4957686;28;20487;-73
2024/04/05 11:49:33;;;;;;;1.53;1.53;;;17.10;99.90;;;;;;4960923;28;20460;-74
2024/04/05 11:51:59;;;;;;;2.50;2.40;;;17.10;99.90;;;;;;4957413;28;20856;-74
2024/04/05 11:54:25;;;;;;;3.43;2.50;;;17.10;99.90;;;;;;4959041;28;20492;-75
2024/04/05 11:56:52;;;;;;;2.60;1.67;;;17.10;99.90;;;;;;4959055;28;20478;-75
2024/04/05 11:59:19;;;;;;;2.77;2.30;;;17.00;99.90;;;;;;4947686;28;20209;-75
2024/04/05 12:01:48;;;;;;;2.33;1.70;;;17.00;99.90;;;;;;4945898;28;20492;-76
2024/04/05 12:04:14;;;;;;;2.20;1.37;;;;;;;;;;4954866;28;20464;-76
2024/04/05 12:06:41;;;;;;;3.50;1.73;;;17.00;99.90;;;;;;4960998;28;20887;-75
2024/04/05 12:09:08;;;;;;;1.10;1.10;;;17.00;99.90;;;;;;4957457;28;20823;-74
2024/04/05 12:11:34;;;;;;;3.30;2.10;;;17.00;99.90;;;;;;4957199;28;20564;-77
2024/04/05 12:14:00;;;;;;;5.93;2.40;;;17.00;99.90;;;;;;4946932;28;20495;-74
2024/04/05 12:16:27;;;;;;;5.83;3.73;;;17.00;99.90;;;;;;4955270;28;20931;-75
2024/04/05 12:18:54;;;;;;;2.43;1.20;;;17.00;99.90;;;;;;4958431;28;20616;-75
2024/04/05 12:21:21;;;;;;;2.43;2.10;;;17.00;99.90;;;;;;4960553;28;20492;-75
2024/04/05 12:23:46;;;;;;;3.20;2.70;;;17.00;99.90;;;;;;4965118;28;20907;-75
2024/04/05 12:26:14;;;;;;;2.00;1.97;;;17.00;99.90;;;;;;4961411;28;20473;-76
2024/04/05 12:28:40;;;;;;;5.27;4.33;;;17.00;99.90;;;;;;4950969;28;20209;-75
2024/04/05 12:31:07;;;;;;;4.73;2.40;;;17.10;99.90;;;;;;4955564;28;20543;-76
2024/04/05 12:33:33;;;;;;;1.23;1.23;;;17.10;99.90;;;;;;4953199;28;20288;-75
2024/04/05 12:36:03;;;;;;;3.70;1.30;;;17.10;99.90;;;;;;4950879;28;21147;-74
2024/04/05 12:38:31;;;;;;;0.90;0.90;;;17.10;99.90;;;;;;4956406;28;20213;-75
2024/04/05 12:40:57;;;;;;;1.10;0.93;;;17.00;99.90;;;;;;4945899;28;21098;-76
2024/04/05 12:43:23;;;;;;;0.70;0.70;;;16.90;99.90;;;;;;4951439;28;20472;-74
2024/04/05 12:45:58;;;;;;;1.00;1.00;;;16.90;99.90;;;;;;4954020;28;20468;-75
2024/04/05 12:48:24;;;;;;;0.77;0.77;;;16.80;99.90;;;;;;4953879;28;20300;-75
2024/04/05 12:50:58;;;;;;;1.30;0.93;;;16.80;99.90;;;;;;4955448;28;21002;-75
2024/04/05 12:53:26;;;;;;;1.23;0.77;;;16.70;99.90;;;;;;4953060;28;20468;-75
2024/04/05 12:55:55;;;;;;;0.63;0.60;;;16.60;99.90;;;;;;4955281;28;20535;-74
2024/04/05 12:58:22;;;;;;;1.10;1.10;;;16.60;99.90;;;;;;4951931;28;21014;-74
2024/04/05 13:00:50;;;;;;;2.30;2.20;;;16.50;99.90;;;;;;4952292;28;20547;-76
2024/04/05 13:03:16;;;;;;;1.50;1.40;;;16.20;99.90;;;;;;4955146;28;20488;-75
2024/04/05 13:05:43;;;;;;;1.73;1.63;;;16.00;99.90;;;;;;4950643;28;20883;-75
2024/04/05 13:08:09;;;;;;;4.37;4.10;;;16.00;99.90;;;;;;4951136;28;20476;-76
2024/04/05 13:10:37;;;;;;;2.90;2.70;;;15.80;99.90;;;;;;4952068;28;20484;-78
2024/04/05 13:13:04;;;;;;;1.70;1.60;;;15.80;99.90;;;;;;4952875;28;20478;-75
2024/04/05 13:15:34;;;;;;;1.87;1.73;;;15.80;99.90;;;;;;4957669;28;20492;-75
2024/04/05 13:18:00;;;;;;;2.27;2.00;;;15.80;99.90;;;;;;4959636;28;20465;-75
2024/04/05 13:20:26;;;;;;;2.20;2.20;;;15.70;99.90;;;;;;4953092;28;20881;-73
2024/04/05 13:22:52;;;;;;;9.50;6.17;;;15.70;99.90;;;;;;4949959;28;20224;-75
2024/04/05 13:25:19;;;;;;;3.60;3.40;;;15.80;99.90;;;;;;4954294;28;20527;-75
2024/04/05 13:27:47;;;;;;;3.27;3.07;;;15.70;99.90;;;;;;4947147;28;20639;-75
2024/04/05 13:30:14;;;;;;;1.10;1.00;;;15.70;99.90;;;;;;4953217;28;20543;-75
2024/04/05 13:32:41;;;;;;;2.10;1.47;;;15.70;99.90;;;;;;4952713;28;20468;-76
2024/04/05 13:35:09;;;;;;;4.17;3.97;;;15.80;99.90;;;;;;4952970;28;20500;-74
2024/04/05 13:37:36;;;;;;;4.47;4.17;;;15.80;99.90;;;;;;4949016;28;20611;-75
2024/04/05 13:40:05;;;;;;;3.27;1.87;;;15.80;99.90;;;;;;4958457;28;20515;-75
2024/04/05 13:42:32;;;;;;;1.33;1.20;;;15.70;99.90;;;;;;4952671;28;20571;-75
2024/04/05 13:45:00;;;;;;;1.80;1.40;;;15.70;99.90;;;;;;4952869;28;20512;-75
2024/04/05 13:47:25;;;;;;;3.93;1.43;;;15.70;99.90;;;;;;4952849;28;20971;-75
2024/04/05 13:49:52;;;;;;;2.13;2.03;;;15.70;99.90;;;;;;4953966;29;20468;-75
2024/04/05 13:52:18;;;;;;;1.20;1.07;;;15.60;99.90;;;;;;4949995;28;20316;-73
2024/04/05 13:54:45;;;;;;;2.37;2.17;;;15.60;99.90;;;;;;4949872;28;20599;-75
2024/04/05 13:57:11;;;;;;;4.00;3.60;;;15.60;99.90;;;;;;4950488;28;20789;-74
2024/04/05 13:59:39;;;;;;;3.83;1.90;;;15.70;99.90;;;;;;4957144;28;20457;-75
2024/04/05 14:02:06;;;;;;;1.43;1.33;;;15.70;99.90;;;;;;4959422;28;20484;-74
2024/04/05 14:04:33;;;;;;;1.37;1.37;;;15.70;99.90;;;;;;4954078;28;20972;-75
2024/04/05 14:06:59;;;;;;;5.27;2.23;;;15.60;99.90;;;;;;4957658;28;20490;-75
2024/04/05 14:09:26;;;;;;;1.60;1.60;;;15.60;99.90;;;;;;4950475;28;20487;-75
2024/04/05 14:11:52;;;;;;;0.83;0.83;;;15.60;99.90;;;;;;4956386;28;20623;-75
2024/04/05 14:14:19;;;;;;;1.37;1.37;;;15.60;99.90;;;;;;4959524;28;20531;-75
2024/04/05 14:16:45;;;;;;;3.30;1.40;;;15.50;99.90;;;;;;4958885;28;20205;-75
2024/04/05 14:19:13;;;;;;;2.87;1.57;;;15.50;99.90;;;;;;4954514;28;20615;-75
2024/04/05 14:21:39;;;;;;;0.90;0.90;;;;;;;;;;4953531;28;20229;-74
2024/04/05 14:24:07;;;;;;;1.10;1.10;;;15.40;99.90;;;;;;4963217;28;20883;-74
2024/04/05 14:26:33;;;;;;;1.73;1.60;;;15.40;99.90;;;;;;4959389;28;20555;-75
2024/04/05 14:29:00;;;;;;;2.57;1.90;;;15.40;99.90;;;;;;4956886;28;20583;-75
2024/04/05 14:31:26;;;;;;;4.40;1.37;;;15.30;99.90;;;;;;4958566;28;20224;-76
2024/04/05 14:33:52;;;;;;;1.90;1.37;;;15.30;99.90;;;;;;4958532;28;20476;-76
2024/04/05 14:36:19;;;;;;;1.10;1.10;;;15.20;99.90;;;;;;4958569;28;20201;-76
2024/04/05 14:38:46;;;;;;;1.33;1.33;;;15.20;99.90;;;;;;4956811;28;20954;-76
2024/04/05 14:41:13;;;;;;;3.37;2.63;;;15.10;99.90;;;;;;4956734;28;20512;-74
2024/04/05 14:43:41;;;;;;;3.10;2.90;;;15.10;99.90;;;;;;4954607;28;20546;-74
2024/04/05 14:46:07;;;;;;;5.40;4.00;;;15.00;99.90;;;;;;4956903;28;20500;-75
2024/04/05 14:48:34;;;;;;;6.30;5.63;;;15.00;99.90;;;;;;4946312;28;20466;-73
2024/04/05 14:51:02;;;;;;;11.30;5.87;;;14.90;99.90;;;;;;4948330;28;20504;-74
2024/04/05 14:53:32;;;;;;;3.93;3.63;;;14.70;99.90;;;;;;4945701;28;20599;-74
2024/04/05 14:55:59;;;;;;;3.63;3.43;;;14.60;99.90;;;;;;4949931;28;20501;-75
2024/04/05 14:58:26;;;;;;;4.27;3.87;;;14.60;99.90;;;;;;4951738;28;20878;-75
2024/04/05 15:00:56;;;;;;;2.93;2.63;;;14.60;99.90;;;;;;4951040;28;21039;-74
2024/04/05 15:03:23;;;;;;;4.43;4.13;;;14.30;99.90;;;;;;4948708;28;20458;-74
2024/04/05 15:05:59;;;;;;;3.50;2.90;;;14.50;99.90;;;;;;4945978;28;20475;-73
2024/04/05 15:08:26;;;;;;;2.57;2.37;;;;;;;;;;4946553;28;20468;-73
2024/04/05 15:10:54;;;;;;;2.73;2.50;;;15.80;99.90;;;;;;4944890;28;20492;-74
2024/04/05 15:13:21;;;;;;;6.03;3.73;;;14.50;99.90;;;;;;4948250;28;20467;-74
2024/04/05 15:15:48;;;;;;;4.73;4.33;;;14.50;99.90;;;;;;4945888;28;20476;-73
2024/04/05 15:18:14;;;;;;;3.40;3.30;;;14.50;99.90;;;;;;4947455;28;20543;-72
2024/04/05 15:20:40;;;;;;;5.00;4.50;;;14.50;99.90;;;;;;4945729;28;20823;-73
2024/04/05 15:23:07;;;;;;;3.80;3.60;;;14.60;99.90;;;;;;4947052;28;20569;-73
2024/04/05 15:25:33;;;;;;;4.03;2.40;;;14.60;99.90;;;;;;4943668;28;20251;-73
2024/04/05 15:28:01;;;;;;;2.10;1.90;;;14.60;99.90;;;;;;4944217;28;20467;-74
2024/04/05 15:30:27;;;;;;;5.43;2.60;;;14.60;99.90;;;;;;4948735;28;20529;-74
2024/04/05 15:32:54;;;;;;;2.90;2.70;;;14.60;99.90;;;;;;4949231;28;20589;-72
2024/04/05 15:35:19;;;;;;;2.87;2.60;;;14.60;99.90;;;;;;4948601;28;20259;-73
2024/04/05 15:37:46;;;;;;;3.93;2.73;;;14.60;99.90;;;;;;4950006;28;20469;-75
2024/04/05 15:40:13;;;;;;;2.10;1.90;;;14.70;99.90;;;;;;4948924;28;20209;-73
2024/04/05 15:42:39;;;;;;;6.80;4.00;;;14.70;99.90;;;;;;4947006;28;21532;-73
2024/04/05 15:45:07;;;;;;;6.30;4.80;;;14.70;99.90;;;;;;4947347;28;20473;-74
2024/04/05 15:47:33;;;;;;;4.03;3.20;;;14.70;99.90;;;;;;4947371;28;20510;-74
2024/04/05 15:49:59;;;;;;;2.30;2.30;;;14.70;99.90;;;;;;4947416;28;20524;-72
2024/04/05 15:52:26;;;;;;;4.30;2.87;;;14.70;99.90;;;;;;4948738;28;20495;-74
2024/04/05 15:54:52;;;;;;;3.00;2.70;;;14.70;99.90;;;;;;4948122;28;20221;-73
2024/04/05 15:57:18;;;;;;;2.63;2.30;;;14.70;99.90;;;;;;4949583;28;20472;-72
2024/04/05 15:59:44;;;;;;;2.00;2.00;;;14.70;99.90;;;;;;4943455;28;20219;-73
2024/04/05 16:02:12;;;;;;;2.80;2.70;;;14.70;99.90;;;;;;4948690;28;20496;-73
2024/04/05 16:04:41;;;;;;;2.23;2.03;;;14.70;99.90;;;;;;4950390;28;20216;-74
2024/04/05 16:07:08;;;;;;;1.60;1.60;;;14.70;99.90;;;;;;4947753;28;20464;-72
2024/04/05 16:09:34;;;;;;;2.47;2.10;;;14.70;99.90;;;;;;4950433;28;20468;-72
2024/04/05 16:12:00;;;;;;;7.20;6.37;;;14.70;99.90;;;;;;4946247;28;21104;-72
2024/04/05 16:14:27;;;;;;;13.53;6.77;;;14.70;99.90;;;;;;4946488;28;20488;-72
2024/04/05 16:16:54;;;;;;;4.43;4.03;;;14.80;99.90;;;;;;4948590;28;20464;-72
2024/04/05 16:19:21;;;;;;;5.07;4.70;;;14.90;99.90;;;;;;4948237;28;20496;-73
2024/04/05 16:21:47;;;;;;;3.00;2.80;;;15.10;99.90;;;;;;4947983;28;20528;-73
2024/04/05 16:24:13;;;;;;;2.33;2.23;;;15.10;99.90;;;;;;4959042;28;20453;-73
2024/04/05 16:26:40;;;;;;;2.07;2.00;;;15.20;99.90;;;;;;4957798;28;20990;-76
2024/04/05 16:29:05;;;;;;;2.00;1.90;;;15.20;99.90;;;;;;4960619;28;20216;-73
2024/04/05 16:31:32;;;;;;;2.37;2.27;;;15.20;99.90;;;;;;4955264;28;20491;-73
2024/04/05 16:33:59;;;;;;;6.57;3.83;;;15.20;99.90;;;;;;4960777;28;20213;-73
2024/04/05 16:36:27;;;;;;;3.80;3.50;;;15.20;99.90;;;;;;4951690;28;20825;-73
2024/04/05 16:38:53;;;;;;;3.30;3.10;;;15.20;99.90;;;;;;4957760;28;20460;-73
2024/04/05 16:41:21;;;;;;;3.03;2.20;;;15.10;99.90;;;;;;4957687;28;20492;-73
2024/04/05 16:43:47;;;;;;;2.50;2.37;;;15.00;99.90;;;;;;4961383;28;21134;-71
2024/04/05 16:46:16;;;;;;;3.50;2.37;;;15.00;99.90;;;;;;4955710;28;20471;-71